sensor_id;sensor_type;location;lat;lon;timestamp;P1;durP1;ratioP1;P2;durP2;ratioP2
70970;SDS011;58632;51.718;19.446;2024-03-02T00:00:36;36.40;;;24.20;;
70970;SDS011;58632;51.718;19.446;2024-03-02T00:03:22;31.90;;;22.60;;
70970;SDS011;58632;51.718;19.446;2024-03-02T00:05:49;34.20;;;23.00;;
70970;SDS011;58632;51.718;19.446;2024-03-02T00:08:17;33.40;;;22.00;;
70970;SDS011;58632;51.718;19.446;2024-03-02T00:10:48;30.40;;;22.00;;
70970;SDS011;58632;51.718;19.446;2024-03-02T00:13:13;32.30;;;23.60;;
70970;SDS011;58632;51.718;19.446;2024-03-02T00:15:45;31.80;;;23.30;;
70970;SDS011;58632;51.718;19.446;2024-03-02T00:18:13;33.70;;;22.20;;
70970;SDS011;58632;51.718;19.446;2024-03-02T00:20:41;29.40;;;21.70;;
70970;SDS011;58632;51.718;19.446;2024-03-02T00:23:07;29.50;;;20.50;;
70970;SDS011;58632;51.718;19.446;2024-03-02T00:28:14;30.50;;;21.70;;
70970;SDS011;58632;51.718;19.446;2024-03-02T00:33:17;29.10;;;20.90;;
70970;SDS011;58632;51.718;19.446;2024-03-02T00:35:44;32.60;;;22.20;;
70970;SDS011;58632;51.718;19.446;2024-03-02T00:38:10;26.50;;;19.40;;
70970;SDS011;58632;51.718;19.446;2024-03-02T00:40:35;27.10;;;20.00;;
70970;SDS011;58632;51.718;19.446;2024-03-02T00:43:01;27.50;;;18.60;;
70970;SDS011;58632;51.718;19.446;2024-03-02T00:45:28;29.90;;;20.90;;
70970;SDS011;58632;51.718;19.446;2024-03-02T00:48:04;27.00;;;18.20;;
70970;SDS011;58632;51.718;19.446;2024-03-02T00:50:30;28.30;;;19.80;;
70970;SDS011;58632;51.718;19.446;2024-03-02T00:53:00;28.50;;;19.30;;
70970;SDS011;58632;51.718;19.446;2024-03-02T00:55:27;26.70;;;19.50;;
70970;SDS011;58632;51.718;19.446;2024-03-02T00:57:53;27.90;;;20.60;;
70970;SDS011;58632;51.718;19.446;2024-03-02T01:00:19;29.10;;;20.80;;
70970;SDS011;58632;51.718;19.446;2024-03-02T01:02:44;26.40;;;20.40;;
70970;SDS011;58632;51.718;19.446;2024-03-02T01:05:11;27.00;;;19.60;;
70970;SDS011;58632;51.718;19.446;2024-03-02T01:07:38;24.90;;;19.20;;
70970;SDS011;58632;51.718;19.446;2024-03-02T01:10:06;27.80;;;19.80;;
70970;SDS011;58632;51.718;19.446;2024-03-02T01:12:31;25.50;;;19.10;;
70970;SDS011;58632;51.718;19.446;2024-03-02T01:14:57;32.10;;;21.00;;
70970;SDS011;58632;51.718;19.446;2024-03-02T01:17:23;26.50;;;19.80;;
70970;SDS011;58632;51.718;19.446;2024-03-02T01:19:48;27.20;;;19.30;;
70970;SDS011;58632;51.718;19.446;2024-03-02T01:22:14;26.20;;;19.10;;
70970;SDS011;58632;51.718;19.446;2024-03-02T01:24:40;26.90;;;19.90;;
70970;SDS011;58632;51.718;19.446;2024-03-02T01:27:06;29.00;;;20.60;;
70970;SDS011;58632;51.718;19.446;2024-03-02T01:29:31;24.10;;;18.80;;
70970;SDS011;58632;51.718;19.446;2024-03-02T01:31:59;27.50;;;19.50;;
70970;SDS011;58632;51.718;19.446;2024-03-02T01:34:25;27.40;;;19.70;;
70970;SDS011;58632;51.718;19.446;2024-03-02T01:36:50;26.70;;;19.20;;
70970;SDS011;58632;51.718;19.446;2024-03-02T01:39:16;26.10;;;18.90;;
70970;SDS011;58632;51.718;19.446;2024-03-02T01:41:44;29.80;;;19.30;;
70970;SDS011;58632;51.718;19.446;2024-03-02T01:44:09;24.40;;;18.00;;
70970;SDS011;58632;51.718;19.446;2024-03-02T01:46:35;27.70;;;19.50;;
70970;SDS011;58632;51.718;19.446;2024-03-02T01:49:01;25.00;;;19.70;;
70970;SDS011;58632;51.718;19.446;2024-03-02T01:51:27;27.40;;;19.00;;
70970;SDS011;58632;51.718;19.446;2024-03-02T01:53:52;28.30;;;19.50;;
70970;SDS011;58632;51.718;19.446;2024-03-02T01:56:18;26.80;;;18.90;;
70970;SDS011;58632;51.718;19.446;2024-03-02T01:58:43;26.30;;;19.00;;
70970;SDS011;58632;51.718;19.446;2024-03-02T02:01:09;24.90;;;18.50;;
70970;SDS011;58632;51.718;19.446;2024-03-02T02:03:38;25.60;;;18.60;;
70970;SDS011;58632;51.718;19.446;2024-03-02T02:06:03;23.00;;;15.80;;
70970;SDS011;58632;51.718;19.446;2024-03-02T02:08:29;24.30;;;19.10;;
70970;SDS011;58632;51.718;19.446;2024-03-02T02:10:55;28.30;;;19.40;;
70970;SDS011;58632;51.718;19.446;2024-03-02T02:13:20;28.00;;;20.70;;
70970;SDS011;58632;51.718;19.446;2024-03-02T02:15:46;26.60;;;18.30;;
70970;SDS011;58632;51.718;19.446;2024-03-02T02:18:11;25.60;;;18.10;;
70970;SDS011;58632;51.718;19.446;2024-03-02T02:20:37;25.60;;;18.70;;
70970;SDS011;58632;51.718;19.446;2024-03-02T02:23:03;26.70;;;18.80;;
70970;SDS011;58632;51.718;19.446;2024-03-02T02:25:33;25.60;;;17.40;;
70970;SDS011;58632;51.718;19.446;2024-03-02T02:27:59;25.90;;;18.50;;
70970;SDS011;58632;51.718;19.446;2024-03-02T02:30:25;25.90;;;19.00;;
70970;SDS011;58632;51.718;19.446;2024-03-02T02:32:53;25.00;;;17.50;;
70970;SDS011;58632;51.718;19.446;2024-03-02T02:35:18;27.20;;;19.40;;
70970;SDS011;58632;51.718;19.446;2024-03-02T02:37:44;29.00;;;18.90;;
70970;SDS011;58632;51.718;19.446;2024-03-02T02:40:11;24.20;;;18.60;;
70970;SDS011;58632;51.718;19.446;2024-03-02T02:42:38;25.50;;;19.60;;
70970;SDS011;58632;51.718;19.446;2024-03-02T02:45:04;24.30;;;17.00;;
70970;SDS011;58632;51.718;19.446;2024-03-02T02:47:30;25.50;;;18.20;;
70970;SDS011;58632;51.718;19.446;2024-03-02T02:49:56;25.20;;;17.70;;
70970;SDS011;58632;51.718;19.446;2024-03-02T02:52:22;27.80;;;18.70;;
70970;SDS011;58632;51.718;19.446;2024-03-02T02:54:47;22.80;;;17.60;;
70970;SDS011;58632;51.718;19.446;2024-03-02T02:57:13;23.40;;;18.20;;
70970;SDS011;58632;51.718;19.446;2024-03-02T02:59:38;25.20;;;17.90;;
70970;SDS011;58632;51.718;19.446;2024-03-02T03:02:04;26.20;;;18.80;;
70970;SDS011;58632;51.718;19.446;2024-03-02T03:04:30;25.00;;;19.50;;
70970;SDS011;58632;51.718;19.446;2024-03-02T03:06:56;27.00;;;17.80;;
70970;SDS011;58632;51.718;19.446;2024-03-02T03:09:21;26.50;;;18.30;;
70970;SDS011;58632;51.718;19.446;2024-03-02T03:11:47;26.90;;;18.70;;
70970;SDS011;58632;51.718;19.446;2024-03-02T03:14:12;25.90;;;18.00;;
70970;SDS011;58632;51.718;19.446;2024-03-02T03:16:38;24.00;;;18.40;;
70970;SDS011;58632;51.718;19.446;2024-03-02T03:19:03;26.70;;;19.20;;
70970;SDS011;58632;51.718;19.446;2024-03-02T03:21:28;24.50;;;17.60;;
70970;SDS011;58632;51.718;19.446;2024-03-02T03:23:54;25.70;;;18.10;;
70970;SDS011;58632;51.718;19.446;2024-03-02T03:26:20;26.20;;;18.70;;
70970;SDS011;58632;51.718;19.446;2024-03-02T03:28:46;24.20;;;18.40;;
70970;SDS011;58632;51.718;19.446;2024-03-02T03:31:14;25.00;;;17.60;;
70970;SDS011;58632;51.718;19.446;2024-03-02T03:33:39;26.90;;;18.20;;
70970;SDS011;58632;51.718;19.446;2024-03-02T03:36:05;24.10;;;16.70;;
70970;SDS011;58632;51.718;19.446;2024-03-02T03:38:30;24.00;;;16.80;;
70970;SDS011;58632;51.718;19.446;2024-03-02T03:40:56;26.70;;;19.30;;
70970;SDS011;58632;51.718;19.446;2024-03-02T03:43:22;25.80;;;18.70;;
70970;SDS011;58632;51.718;19.446;2024-03-02T03:45:47;23.80;;;18.00;;
70970;SDS011;58632;51.718;19.446;2024-03-02T03:48:13;25.60;;;17.20;;
70970;SDS011;58632;51.718;19.446;2024-03-02T03:50:38;24.50;;;18.20;;
70970;SDS011;58632;51.718;19.446;2024-03-02T03:53:04;23.60;;;18.10;;
70970;SDS011;58632;51.718;19.446;2024-03-02T03:55:29;25.80;;;19.70;;
70970;SDS011;58632;51.718;19.446;2024-03-02T03:57:55;25.30;;;18.80;;
70970;SDS011;58632;51.718;19.446;2024-03-02T04:00:20;24.80;;;17.10;;
70970;SDS011;58632;51.718;19.446;2024-03-02T04:02:46;23.50;;;17.90;;
70970;SDS011;58632;51.718;19.446;2024-03-02T04:05:11;23.80;;;17.70;;
70970;SDS011;58632;51.718;19.446;2024-03-02T04:07:37;24.30;;;18.10;;
70970;SDS011;58632;51.718;19.446;2024-03-02T04:10:06;28.10;;;19.40;;
70970;SDS011;58632;51.718;19.446;2024-03-02T04:12:34;26.00;;;18.90;;
70970;SDS011;58632;51.718;19.446;2024-03-02T04:15:01;26.10;;;18.50;;
70970;SDS011;58632;51.718;19.446;2024-03-02T04:17:27;25.60;;;18.60;;
70970;SDS011;58632;51.718;19.446;2024-03-02T04:19:52;25.80;;;18.90;;
70970;SDS011;58632;51.718;19.446;2024-03-02T04:22:20;23.30;;;18.00;;
70970;SDS011;58632;51.718;19.446;2024-03-02T04:24:46;23.50;;;18.10;;
70970;SDS011;58632;51.718;19.446;2024-03-02T04:27:12;22.20;;;15.60;;
70970;SDS011;58632;51.718;19.446;2024-03-02T04:29:38;24.10;;;17.50;;
70970;SDS011;58632;51.718;19.446;2024-03-02T04:32:03;21.60;;;16.40;;
70970;SDS011;58632;51.718;19.446;2024-03-02T04:34:29;23.80;;;17.70;;
70970;SDS011;58632;51.718;19.446;2024-03-02T04:36:55;24.50;;;17.10;;
70970;SDS011;58632;51.718;19.446;2024-03-02T04:39:21;26.40;;;17.00;;
70970;SDS011;58632;51.718;19.446;2024-03-02T04:41:49;23.10;;;18.50;;
70970;SDS011;58632;51.718;19.446;2024-03-02T04:44:14;23.80;;;17.90;;
70970;SDS011;58632;51.718;19.446;2024-03-02T04:46:42;26.60;;;17.90;;
70970;SDS011;58632;51.718;19.446;2024-03-02T04:49:08;25.40;;;17.40;;
70970;SDS011;58632;51.718;19.446;2024-03-02T04:51:34;22.90;;;16.40;;
70970;SDS011;58632;51.718;19.446;2024-03-02T04:54:00;26.10;;;19.60;;
70970;SDS011;58632;51.718;19.446;2024-03-02T04:56:29;26.90;;;18.40;;
70970;SDS011;58632;51.718;19.446;2024-03-02T04:58:57;30.50;;;19.90;;
70970;SDS011;58632;51.718;19.446;2024-03-02T05:01:22;24.40;;;17.70;;
70970;SDS011;58632;51.718;19.446;2024-03-02T05:03:48;25.20;;;16.00;;
70970;SDS011;58632;51.718;19.446;2024-03-02T05:06:14;24.70;;;17.40;;
70970;SDS011;58632;51.718;19.446;2024-03-02T05:08:39;23.60;;;17.10;;
70970;SDS011;58632;51.718;19.446;2024-03-02T05:11:05;24.70;;;18.30;;
70970;SDS011;58632;51.718;19.446;2024-03-02T05:13:49;26.90;;;19.20;;
70970;SDS011;58632;51.718;19.446;2024-03-02T05:16:15;29.40;;;20.00;;
70970;SDS011;58632;51.718;19.446;2024-03-02T05:18:40;26.80;;;17.90;;
70970;SDS011;58632;51.718;19.446;2024-03-02T05:21:06;23.70;;;17.20;;
70970;SDS011;58632;51.718;19.446;2024-03-02T05:23:31;26.80;;;18.00;;
70970;SDS011;58632;51.718;19.446;2024-03-02T05:25:57;24.40;;;18.30;;
70970;SDS011;58632;51.718;19.446;2024-03-02T05:28:22;27.80;;;19.40;;
70970;SDS011;58632;51.718;19.446;2024-03-02T05:30:48;27.10;;;19.80;;
70970;SDS011;58632;51.718;19.446;2024-03-02T05:33:14;25.00;;;17.80;;
70970;SDS011;58632;51.718;19.446;2024-03-02T05:35:40;22.80;;;17.80;;
70970;SDS011;58632;51.718;19.446;2024-03-02T05:38:06;23.90;;;18.00;;
70970;SDS011;58632;51.718;19.446;2024-03-02T05:40:31;26.30;;;18.90;;
70970;SDS011;58632;51.718;19.446;2024-03-02T05:42:57;29.80;;;18.90;;
70970;SDS011;58632;51.718;19.446;2024-03-02T05:45:22;23.50;;;17.20;;
70970;SDS011;58632;51.718;19.446;2024-03-02T05:47:48;24.30;;;17.40;;
70970;SDS011;58632;51.718;19.446;2024-03-02T05:50:13;25.70;;;19.20;;
70970;SDS011;58632;51.718;19.446;2024-03-02T05:52:39;25.90;;;18.50;;
70970;SDS011;58632;51.718;19.446;2024-03-02T05:55:04;25.80;;;17.80;;
70970;SDS011;58632;51.718;19.446;2024-03-02T05:57:30;25.70;;;18.40;;
70970;SDS011;58632;51.718;19.446;2024-03-02T06:00:14;26.80;;;19.40;;
70970;SDS011;58632;51.718;19.446;2024-03-02T06:02:42;24.90;;;17.30;;
70970;SDS011;58632;51.718;19.446;2024-03-02T06:05:07;25.80;;;18.60;;
70970;SDS011;58632;51.718;19.446;2024-03-02T06:07:33;24.90;;;18.10;;
70970;SDS011;58632;51.718;19.446;2024-03-02T06:09:59;28.80;;;21.00;;
70970;SDS011;58632;51.718;19.446;2024-03-02T06:12:25;26.10;;;18.20;;
70970;SDS011;58632;51.718;19.446;2024-03-02T06:14:50;27.20;;;19.00;;
70970;SDS011;58632;51.718;19.446;2024-03-02T06:17:19;29.70;;;19.10;;
70970;SDS011;58632;51.718;19.446;2024-03-02T06:19:44;30.50;;;21.40;;
70970;SDS011;58632;51.718;19.446;2024-03-02T06:22:10;25.80;;;18.90;;
70970;SDS011;58632;51.718;19.446;2024-03-02T06:24:36;29.70;;;20.10;;
70970;SDS011;58632;51.718;19.446;2024-03-02T06:29:28;27.30;;;19.30;;
70970;SDS011;58632;51.718;19.446;2024-03-02T06:31:54;26.30;;;18.90;;
70970;SDS011;58632;51.718;19.446;2024-03-02T06:34:19;27.30;;;19.70;;
70970;SDS011;58632;51.718;19.446;2024-03-02T06:36:44;29.50;;;21.20;;
70970;SDS011;58632;51.718;19.446;2024-03-02T06:39:10;30.10;;;20.60;;
70970;SDS011;58632;51.718;19.446;2024-03-02T06:41:37;29.20;;;20.20;;
70970;SDS011;58632;51.718;19.446;2024-03-02T06:44:03;29.00;;;20.70;;
70970;SDS011;58632;51.718;19.446;2024-03-02T06:46:31;27.90;;;19.60;;
70970;SDS011;58632;51.718;19.446;2024-03-02T06:48:57;28.00;;;20.10;;
70970;SDS011;58632;51.718;19.446;2024-03-02T06:51:22;27.60;;;19.60;;
70970;SDS011;58632;51.718;19.446;2024-03-02T06:53:50;30.30;;;21.00;;
70970;SDS011;58632;51.718;19.446;2024-03-02T06:56:16;26.30;;;18.50;;
70970;SDS011;58632;51.718;19.446;2024-03-02T06:58:41;31.30;;;20.60;;
70970;SDS011;58632;51.718;19.446;2024-03-02T07:01:09;29.10;;;19.80;;
70970;SDS011;58632;51.718;19.446;2024-03-02T07:03:35;31.20;;;20.20;;
70970;SDS011;58632;51.718;19.446;2024-03-02T07:06:00;28.50;;;16.90;;
70970;SDS011;58632;51.718;19.446;2024-03-02T07:08:26;30.40;;;21.50;;
70970;SDS011;58632;51.718;19.446;2024-03-02T07:10:52;32.00;;;21.90;;
70970;SDS011;58632;51.718;19.446;2024-03-02T07:13:17;32.90;;;21.90;;
70970;SDS011;58632;51.718;19.446;2024-03-02T07:15:43;29.70;;;21.60;;
70970;SDS011;58632;51.718;19.446;2024-03-02T07:18:29;30.30;;;21.80;;
70970;SDS011;58632;51.718;19.446;2024-03-02T07:20:58;30.60;;;20.50;;
70970;SDS011;58632;51.718;19.446;2024-03-02T07:23:26;29.90;;;20.60;;
70970;SDS011;58632;51.718;19.446;2024-03-02T07:25:52;28.60;;;19.80;;
70970;SDS011;58632;51.718;19.446;2024-03-02T07:28:22;30.70;;;21.90;;
70970;SDS011;58632;51.718;19.446;2024-03-02T07:30:57;32.40;;;22.50;;
70970;SDS011;58632;51.718;19.446;2024-03-02T07:33:26;32.50;;;22.10;;
70970;SDS011;58632;51.718;19.446;2024-03-02T07:35:52;34.30;;;22.50;;
70970;SDS011;58632;51.718;19.446;2024-03-02T07:40:44;31.00;;;21.20;;
70970;SDS011;58632;51.718;19.446;2024-03-02T07:43:10;32.60;;;22.30;;
70970;SDS011;58632;51.718;19.446;2024-03-02T07:45:36;33.10;;;21.20;;
70970;SDS011;58632;51.718;19.446;2024-03-02T07:48:02;33.00;;;21.40;;
70970;SDS011;58632;51.718;19.446;2024-03-02T07:50:31;37.10;;;24.50;;
70970;SDS011;58632;51.718;19.446;2024-03-02T07:52:59;32.30;;;22.90;;
70970;SDS011;58632;51.718;19.446;2024-03-02T07:55:25;31.60;;;22.60;;
70970;SDS011;58632;51.718;19.446;2024-03-02T07:57:50;32.70;;;22.10;;
70970;SDS011;58632;51.718;19.446;2024-03-02T08:00:18;35.30;;;22.90;;
70970;SDS011;58632;51.718;19.446;2024-03-02T08:02:44;32.60;;;22.40;;
70970;SDS011;58632;51.718;19.446;2024-03-02T08:05:10;33.10;;;23.50;;
70970;SDS011;58632;51.718;19.446;2024-03-02T08:07:38;29.40;;;21.30;;
70970;SDS011;58632;51.718;19.446;2024-03-02T08:10:04;32.30;;;21.70;;
70970;SDS011;58632;51.718;19.446;2024-03-02T08:12:30;30.80;;;20.10;;
70970;SDS011;58632;51.718;19.446;2024-03-02T08:14:56;31.80;;;22.80;;
70970;SDS011;58632;51.718;19.446;2024-03-02T08:17:23;32.80;;;22.00;;
70970;SDS011;58632;51.718;19.446;2024-03-02T08:19:49;33.20;;;20.90;;
70970;SDS011;58632;51.718;19.446;2024-03-02T08:22:15;27.90;;;21.00;;
70970;SDS011;58632;51.718;19.446;2024-03-02T08:24:40;32.00;;;22.50;;
70970;SDS011;58632;51.718;19.446;2024-03-02T08:27:06;31.30;;;21.20;;
70970;SDS011;58632;51.718;19.446;2024-03-02T08:29:32;33.90;;;20.90;;
70970;SDS011;58632;51.718;19.446;2024-03-02T08:31:57;33.50;;;22.80;;
70970;SDS011;58632;51.718;19.446;2024-03-02T08:34:23;29.90;;;20.50;;
70970;SDS011;58632;51.718;19.446;2024-03-02T08:36:48;31.30;;;21.00;;
70970;SDS011;58632;51.718;19.446;2024-03-02T08:39:14;27.80;;;19.60;;
70970;SDS011;58632;51.718;19.446;2024-03-02T08:41:44;30.80;;;22.10;;
70970;SDS011;58632;51.718;19.446;2024-03-02T08:44:09;29.20;;;20.00;;
70970;SDS011;58632;51.718;19.446;2024-03-02T08:46:35;33.90;;;22.80;;
70970;SDS011;58632;51.718;19.446;2024-03-02T08:49:02;32.10;;;22.40;;
70970;SDS011;58632;51.718;19.446;2024-03-02T08:51:28;32.30;;;21.90;;
70970;SDS011;58632;51.718;19.446;2024-03-02T08:53:54;31.60;;;23.00;;
70970;SDS011;58632;51.718;19.446;2024-03-02T08:56:19;28.50;;;21.40;;
70970;SDS011;58632;51.718;19.446;2024-03-02T08:58:46;30.40;;;20.50;;
70970;SDS011;58632;51.718;19.446;2024-03-02T09:01:12;31.70;;;21.80;;
70970;SDS011;58632;51.718;19.446;2024-03-02T09:03:38;36.40;;;23.00;;
70970;SDS011;58632;51.718;19.446;2024-03-02T09:06:03;30.80;;;20.10;;
70970;SDS011;58632;51.718;19.446;2024-03-02T09:08:29;31.00;;;20.80;;
70970;SDS011;58632;51.718;19.446;2024-03-02T09:10:55;32.10;;;23.20;;
70970;SDS011;58632;51.718;19.446;2024-03-02T09:15:47;33.50;;;22.70;;
70970;SDS011;58632;51.718;19.446;2024-03-02T09:18:13;34.10;;;23.40;;
70970;SDS011;58632;51.718;19.446;2024-03-02T09:20:39;40.00;;;26.10;;
70970;SDS011;58632;51.718;19.446;2024-03-02T09:23:05;36.10;;;23.40;;
70970;SDS011;58632;51.718;19.446;2024-03-02T09:25:30;34.30;;;25.40;;
70970;SDS011;58632;51.718;19.446;2024-03-02T09:27:56;40.60;;;24.30;;
70970;SDS011;58632;51.718;19.446;2024-03-02T09:30:24;34.50;;;22.80;;
70970;SDS011;58632;51.718;19.446;2024-03-02T09:32:49;35.30;;;22.60;;
70970;SDS011;58632;51.718;19.446;2024-03-02T09:35:15;31.60;;;23.50;;
70970;SDS011;58632;51.718;19.446;2024-03-02T09:37:40;33.00;;;23.30;;
70970;SDS011;58632;51.718;19.446;2024-03-02T09:40:06;31.60;;;21.80;;
70970;SDS011;58632;51.718;19.446;2024-03-02T09:42:32;33.90;;;22.30;;
70970;SDS011;58632;51.718;19.446;2024-03-02T09:44:58;31.30;;;21.00;;
70970;SDS011;58632;51.718;19.446;2024-03-02T09:47:24;34.80;;;23.00;;
70970;SDS011;58632;51.718;19.446;2024-03-02T09:49:49;33.00;;;23.70;;
70970;SDS011;58632;51.718;19.446;2024-03-02T09:52:15;30.70;;;21.80;;
70970;SDS011;58632;51.718;19.446;2024-03-02T09:54:41;31.20;;;20.50;;
70970;SDS011;58632;51.718;19.446;2024-03-02T09:57:06;31.90;;;21.70;;
70970;SDS011;58632;51.718;19.446;2024-03-02T09:59:34;33.80;;;21.20;;
70970;SDS011;58632;51.718;19.446;2024-03-02T10:02:01;30.70;;;20.40;;
70970;SDS011;58632;51.718;19.446;2024-03-02T10:04:29;31.30;;;20.80;;
70970;SDS011;58632;51.718;19.446;2024-03-02T10:07:15;36.30;;;21.10;;
70970;SDS011;58632;51.718;19.446;2024-03-02T10:09:42;28.50;;;20.10;;
70970;SDS011;58632;51.718;19.446;2024-03-02T10:12:09;34.30;;;23.40;;
70970;SDS011;58632;51.718;19.446;2024-03-02T10:14:36;29.70;;;20.30;;
70970;SDS011;58632;51.718;19.446;2024-03-02T10:17:05;36.80;;;22.80;;
70970;SDS011;58632;51.718;19.446;2024-03-02T10:19:32;35.70;;;23.10;;
70970;SDS011;58632;51.718;19.446;2024-03-02T10:22:00;36.10;;;23.20;;
70970;SDS011;58632;51.718;19.446;2024-03-02T10:24:28;34.10;;;23.90;;
70970;SDS011;58632;51.718;19.446;2024-03-02T10:27:18;26.00;;;18.00;;
70970;SDS011;58632;51.718;19.446;2024-03-02T10:29:48;31.60;;;18.80;;
70970;SDS011;58632;51.718;19.446;2024-03-02T10:32:15;32.50;;;21.80;;
70970;SDS011;58632;51.718;19.446;2024-03-02T10:34:41;31.90;;;19.60;;
70970;SDS011;58632;51.718;19.446;2024-03-02T10:37:08;34.50;;;22.60;;
70970;SDS011;58632;51.718;19.446;2024-03-02T10:39:35;35.70;;;23.90;;
70970;SDS011;58632;51.718;19.446;2024-03-02T10:42:01;34.50;;;24.80;;
70970;SDS011;58632;51.718;19.446;2024-03-02T10:44:28;34.70;;;21.80;;
70970;SDS011;58632;51.718;19.446;2024-03-02T10:46:59;38.70;;;24.40;;
70970;SDS011;58632;51.718;19.446;2024-03-02T10:49:30;38.20;;;24.70;;
70970;SDS011;58632;51.718;19.446;2024-03-02T10:51:57;32.30;;;21.50;;
70970;SDS011;58632;51.718;19.446;2024-03-02T10:54:23;30.20;;;21.10;;
70970;SDS011;58632;51.718;19.446;2024-03-02T10:56:52;34.40;;;22.30;;
70970;SDS011;58632;51.718;19.446;2024-03-02T11:01:55;35.30;;;21.40;;
70970;SDS011;58632;51.718;19.446;2024-03-02T11:04:23;30.70;;;20.30;;
70970;SDS011;58632;51.718;19.446;2024-03-02T11:06:51;33.20;;;22.10;;
70970;SDS011;58632;51.718;19.446;2024-03-02T11:09:18;27.10;;;20.10;;
70970;SDS011;58632;51.718;19.446;2024-03-02T11:14:31;34.70;;;23.50;;
70970;SDS011;58632;51.718;19.446;2024-03-02T11:16:58;32.20;;;21.70;;
70970;SDS011;58632;51.718;19.446;2024-03-02T11:19:29;34.60;;;22.90;;
70970;SDS011;58632;51.718;19.446;2024-03-02T11:21:55;34.70;;;24.70;;
70970;SDS011;58632;51.718;19.446;2024-03-02T11:26:52;32.60;;;21.20;;
70970;SDS011;58632;51.718;19.446;2024-03-02T11:32:19;37.70;;;24.50;;
70970;SDS011;58632;51.718;19.446;2024-03-02T11:34:48;42.40;;;26.90;;
70970;SDS011;58632;51.718;19.446;2024-03-02T11:37:16;38.10;;;24.60;;
70970;SDS011;58632;51.718;19.446;2024-03-02T11:39:45;37.20;;;26.10;;
70970;SDS011;58632;51.718;19.446;2024-03-02T11:42:12;30.40;;;21.90;;
70970;SDS011;58632;51.718;19.446;2024-03-02T11:44:39;35.10;;;24.30;;
70970;SDS011;58632;51.718;19.446;2024-03-02T11:47:13;33.00;;;22.50;;
70970;SDS011;58632;51.718;19.446;2024-03-02T11:49:44;33.30;;;23.00;;
70970;SDS011;58632;51.718;19.446;2024-03-02T11:52:11;37.70;;;23.80;;
70970;SDS011;58632;51.718;19.446;2024-03-02T11:54:39;35.90;;;25.60;;
70970;SDS011;58632;51.718;19.446;2024-03-02T11:57:08;36.70;;;23.50;;
70970;SDS011;58632;51.718;19.446;2024-03-02T11:59:34;32.30;;;23.20;;
70970;SDS011;58632;51.718;19.446;2024-03-02T12:02:00;36.10;;;23.70;;
70970;SDS011;58632;51.718;19.446;2024-03-02T12:04:26;35.40;;;24.40;;
70970;SDS011;58632;51.718;19.446;2024-03-02T12:06:55;35.70;;;23.60;;
70970;SDS011;58632;51.718;19.446;2024-03-02T12:09:22;32.50;;;21.00;;
70970;SDS011;58632;51.718;19.446;2024-03-02T12:11:47;37.60;;;24.30;;
70970;SDS011;58632;51.718;19.446;2024-03-02T12:14:13;30.70;;;22.00;;
70970;SDS011;58632;51.718;19.446;2024-03-02T12:16:39;39.00;;;24.50;;
70970;SDS011;58632;51.718;19.446;2024-03-02T12:19:11;32.50;;;22.30;;
70970;SDS011;58632;51.718;19.446;2024-03-02T12:21:36;37.10;;;24.80;;
70970;SDS011;58632;51.718;19.446;2024-03-02T12:24:03;35.00;;;22.70;;
70970;SDS011;58632;51.718;19.446;2024-03-02T12:26:29;37.50;;;22.60;;
70970;SDS011;58632;51.718;19.446;2024-03-02T12:28:54;35.40;;;22.60;;
70970;SDS011;58632;51.718;19.446;2024-03-02T12:31:20;38.40;;;25.70;;
70970;SDS011;58632;51.718;19.446;2024-03-02T12:33:46;37.10;;;25.60;;
70970;SDS011;58632;51.718;19.446;2024-03-02T12:36:13;38.50;;;25.00;;
70970;SDS011;58632;51.718;19.446;2024-03-02T12:41:08;32.40;;;21.60;;
70970;SDS011;58632;51.718;19.446;2024-03-02T12:43:34;32.10;;;21.50;;
70970;SDS011;58632;51.718;19.446;2024-03-02T12:45:59;37.00;;;24.10;;
70970;SDS011;58632;51.718;19.446;2024-03-02T12:48:25;41.60;;;26.00;;
70970;SDS011;58632;51.718;19.446;2024-03-02T12:50:51;37.80;;;24.90;;
70970;SDS011;58632;51.718;19.446;2024-03-02T12:53:19;32.40;;;23.50;;
70970;SDS011;58632;51.718;19.446;2024-03-02T12:55:46;32.30;;;22.20;;
70970;SDS011;58632;51.718;19.446;2024-03-02T12:58:19;34.70;;;22.80;;
70970;SDS011;58632;51.718;19.446;2024-03-02T13:00:48;35.80;;;24.00;;
70970;SDS011;58632;51.718;19.446;2024-03-02T13:03:14;39.50;;;25.80;;
70970;SDS011;58632;51.718;19.446;2024-03-02T13:05:47;39.40;;;23.90;;
70970;SDS011;58632;51.718;19.446;2024-03-02T13:08:14;36.70;;;24.90;;
70970;SDS011;58632;51.718;19.446;2024-03-02T13:10:39;35.60;;;24.20;;
70970;SDS011;58632;51.718;19.446;2024-03-02T13:13:06;36.00;;;24.00;;
70970;SDS011;58632;51.718;19.446;2024-03-02T13:15:32;34.30;;;22.80;;
70970;SDS011;58632;51.718;19.446;2024-03-02T13:17:58;35.20;;;24.70;;
70970;SDS011;58632;51.718;19.446;2024-03-02T13:20:29;38.40;;;25.20;;
70970;SDS011;58632;51.718;19.446;2024-03-02T13:22:57;36.00;;;24.50;;
70970;SDS011;58632;51.718;19.446;2024-03-02T13:25:22;34.80;;;23.40;;
70970;SDS011;58632;51.718;19.446;2024-03-02T13:27:48;33.70;;;23.10;;
70970;SDS011;58632;51.718;19.446;2024-03-02T13:30:14;34.20;;;22.00;;
70970;SDS011;58632;51.718;19.446;2024-03-02T13:32:39;35.60;;;24.30;;
70970;SDS011;58632;51.718;19.446;2024-03-02T13:35:05;35.90;;;25.00;;
70970;SDS011;58632;51.718;19.446;2024-03-02T13:37:30;36.40;;;25.00;;
70970;SDS011;58632;51.718;19.446;2024-03-02T13:39:56;36.30;;;23.40;;
70970;SDS011;58632;51.718;19.446;2024-03-02T13:42:21;35.90;;;25.40;;
70970;SDS011;58632;51.718;19.446;2024-03-02T13:44:47;34.40;;;24.60;;
70970;SDS011;58632;51.718;19.446;2024-03-02T13:47:15;35.70;;;24.80;;
70970;SDS011;58632;51.718;19.446;2024-03-02T13:49:40;38.30;;;24.60;;
70970;SDS011;58632;51.718;19.446;2024-03-02T13:52:10;40.00;;;25.30;;
70970;SDS011;58632;51.718;19.446;2024-03-02T13:54:41;33.80;;;21.60;;
70970;SDS011;58632;51.718;19.446;2024-03-02T13:57:08;40.20;;;27.00;;
70970;SDS011;58632;51.718;19.446;2024-03-02T13:59:34;37.90;;;26.20;;
70970;SDS011;58632;51.718;19.446;2024-03-02T14:02:03;36.30;;;23.70;;
70970;SDS011;58632;51.718;19.446;2024-03-02T14:04:33;39.70;;;24.30;;
70970;SDS011;58632;51.718;19.446;2024-03-02T14:07:00;43.00;;;26.80;;
70970;SDS011;58632;51.718;19.446;2024-03-02T14:09:26;37.10;;;25.20;;
70970;SDS011;58632;51.718;19.446;2024-03-02T14:11:52;32.50;;;22.70;;
70970;SDS011;58632;51.718;19.446;2024-03-02T14:16:44;37.00;;;23.50;;
70970;SDS011;58632;51.718;19.446;2024-03-02T14:19:13;38.70;;;24.30;;
70970;SDS011;58632;51.718;19.446;2024-03-02T14:21:39;37.80;;;25.40;;
70970;SDS011;58632;51.718;19.446;2024-03-02T14:24:05;37.80;;;24.60;;
70970;SDS011;58632;51.718;19.446;2024-03-02T14:26:32;41.00;;;26.40;;
70970;SDS011;58632;51.718;19.446;2024-03-02T14:28:58;39.80;;;26.40;;
70970;SDS011;58632;51.718;19.446;2024-03-02T14:31:27;40.70;;;25.10;;
70970;SDS011;58632;51.718;19.446;2024-03-02T14:33:53;41.00;;;25.90;;